sensor_id;sensor_type;location;lat;lon;timestamp;temperature;humidity
24224;DHT22;12359;49.716;9.212;2023-01-08T00:02:14;6.30;55.00
24224;DHT22;12359;49.716;9.212;2023-01-08T00:04:39;6.40;54.10
24224;DHT22;12359;49.716;9.212;2023-01-08T00:07:05;6.40;52.80
24224;DHT22;12359;49.716;9.212;2023-01-08T00:09:31;6.50;50.40
24224;DHT22;12359;49.716;9.212;2023-01-08T00:11:56;6.50;49.40
24224;DHT22;12359;49.716;9.212;2023-01-08T00:14:22;6.60;50.80
24224;DHT22;12359;49.716;9.212;2023-01-08T00:16:47;6.60;44.40
24224;DHT22;12359;49.716;9.212;2023-01-08T00:19:13;6.60;40.20
24224;DHT22;12359;49.716;9.212;2023-01-08T00:21:39;6.60;44.10
24224;DHT22;12359;49.716;9.212;2023-01-08T00:24:05;6.70;44.80
24224;DHT22;12359;49.716;9.212;2023-01-08T00:26:31;6.70;42.10
24224;DHT22;12359;49.716;9.212;2023-01-08T00:28:56;6.70;40.80
24224;DHT22;12359;49.716;9.212;2023-01-08T00:31:23;6.70;40.90
24224;DHT22;12359;49.716;9.212;2023-01-08T00:33:49;6.70;41.20
24224;DHT22;12359;49.716;9.212;2023-01-08T00:36:17;6.70;41.20
24224;DHT22;12359;49.716;9.212;2023-01-08T00:38:43;6.60;39.60
24224;DHT22;12359;49.716;9.212;2023-01-08T00:41:11;6.60;39.70
24224;DHT22;12359;49.716;9.212;2023-01-08T00:43:38;6.60;39.70
24224;DHT22;12359;49.716;9.212;2023-01-08T00:46:05;6.50;38.90
24224;DHT22;12359;49.716;9.212;2023-01-08T00:48:31;6.50;44.00
24224;DHT22;12359;49.716;9.212;2023-01-08T00:51:01;6.50;44.70
24224;DHT22;12359;49.716;9.212;2023-01-08T00:53:28;6.50;47.10
24224;DHT22;12359;49.716;9.212;2023-01-08T00:56:20;6.40;45.00
24224;DHT22;12359;49.716;9.212;2023-01-08T00:58:45;6.50;48.00
24224;DHT22;12359;49.716;9.212;2023-01-08T01:01:12;6.50;48.60
24224;DHT22;12359;49.716;9.212;2023-01-08T01:03:39;6.50;47.40
24224;DHT22;12359;49.716;9.212;2023-01-08T01:06:07;6.40;47.00
24224;DHT22;12359;49.716;9.212;2023-01-08T01:08:34;6.40;48.00
24224;DHT22;12359;49.716;9.212;2023-01-08T01:11:04;6.40;50.20
24224;DHT22;12359;49.716;9.212;2023-01-08T01:13:30;6.40;50.20
24224;DHT22;12359;49.716;9.212;2023-01-08T01:16:00;6.40;50.60
24224;DHT22;12359;49.716;9.212;2023-01-08T01:18:26;6.40;49.00
24224;DHT22;12359;49.716;9.212;2023-01-08T01:20:52;6.40;47.20
24224;DHT22;12359;49.716;9.212;2023-01-08T01:23:18;6.40;49.50
24224;DHT22;12359;49.716;9.212;2023-01-08T01:25:43;6.30;50.80
24224;DHT22;12359;49.716;9.212;2023-01-08T01:28:09;6.30;51.80
24224;DHT22;12359;49.716;9.212;2023-01-08T01:30:35;6.30;51.00
24224;DHT22;12359;49.716;9.212;2023-01-08T01:33:00;6.30;52.70
24224;DHT22;12359;49.716;9.212;2023-01-08T01:35:26;6.30;54.80
24224;DHT22;12359;49.716;9.212;2023-01-08T01:37:51;6.40;54.80
24224;DHT22;12359;49.716;9.212;2023-01-08T01:40:17;6.40;53.30
24224;DHT22;12359;49.716;9.212;2023-01-08T01:42:43;6.40;50.10
24224;DHT22;12359;49.716;9.212;2023-01-08T01:45:23;6.40;51.20
24224;DHT22;12359;49.716;9.212;2023-01-08T01:48:04;6.50;51.80
24224;DHT22;12359;49.716;9.212;2023-01-08T01:50:46;6.50;51.70
24224;DHT22;12359;49.716;9.212;2023-01-08T01:53:18;6.50;52.40
24224;DHT22;12359;49.716;9.212;2023-01-08T01:55:45;6.50;53.30
24224;DHT22;12359;49.716;9.212;2023-01-08T01:58:30;6.50;53.30
24224;DHT22;12359;49.716;9.212;2023-01-08T02:00:59;6.50;51.50
24224;DHT22;12359;49.716;9.212;2023-01-08T02:03:29;6.50;51.50
24224;DHT22;12359;49.716;9.212;2023-01-08T02:05:58;6.50;51.70
24224;DHT22;12359;49.716;9.212;2023-01-08T02:08:40;6.50;54.20
24224;DHT22;12359;49.716;9.212;2023-01-08T02:11:12;6.40;55.10
24224;DHT22;12359;49.716;9.212;2023-01-08T02:13:41;6.50;56.70
24224;DHT22;12359;49.716;9.212;2023-01-08T02:27:08;6.80;54.40
24224;DHT22;12359;49.716;9.212;2023-01-08T02:29:34;6.80;52.20
24224;DHT22;12359;49.716;9.212;2023-01-08T02:32:00;6.90;49.70
24224;DHT22;12359;49.716;9.212;2023-01-08T02:34:26;6.90;48.40
24224;DHT22;12359;49.716;9.212;2023-01-08T02:36:54;7.00;48.90
24224;DHT22;12359;49.716;9.212;2023-01-08T02:42:38;7.00;47.40
24224;DHT22;12359;49.716;9.212;2023-01-08T02:45:15;7.00;48.80
24224;DHT22;12359;49.716;9.212;2023-01-08T02:47:59;7.10;49.30
24224;DHT22;12359;49.716;9.212;2023-01-08T02:50:43;7.10;50.10
24224;DHT22;12359;49.716;9.212;2023-01-08T02:55:52;7.00;45.40
24224;DHT22;12359;49.716;9.212;2023-01-08T02:58:20;7.10;42.60
24224;DHT22;12359;49.716;9.212;2023-01-08T03:00:48;7.10;43.80
24224;DHT22;12359;49.716;9.212;2023-01-08T03:03:21;7.10;43.10
24224;DHT22;12359;49.716;9.212;2023-01-08T03:05:55;7.10;42.20
24224;DHT22;12359;49.716;9.212;2023-01-08T03:08:22;7.10;42.80
24224;DHT22;12359;49.716;9.212;2023-01-08T03:10:54;7.10;37.90
24224;DHT22;12359;49.716;9.212;2023-01-08T03:13:59;7.10;38.40
24224;DHT22;12359;49.716;9.212;2023-01-08T03:16:21;7.00;36.30
24224;DHT22;12359;49.716;9.212;2023-01-08T03:19:01;7.00;35.80
24224;DHT22;12359;49.716;9.212;2023-01-08T03:21:27;7.00;34.50
24224;DHT22;12359;49.716;9.212;2023-01-08T03:23:52;7.10;38.70
24224;DHT22;12359;49.716;9.212;2023-01-08T03:26:24;7.00;37.80
24224;DHT22;12359;49.716;9.212;2023-01-08T03:28:52;7.10;40.30
24224;DHT22;12359;49.716;9.212;2023-01-08T03:31:21;7.00;39.60
24224;DHT22;12359;49.716;9.212;2023-01-08T03:33:48;7.10;40.30
24224;DHT22;12359;49.716;9.212;2023-01-08T03:36:18;7.00;42.10
24224;DHT22;12359;49.716;9.212;2023-01-08T03:39:19;7.10;42.30
24224;DHT22;12359;49.716;9.212;2023-01-08T03:41:47;7.10;42.40
24224;DHT22;12359;49.716;9.212;2023-01-08T03:44:13;7.00;42.80
24224;DHT22;12359;49.716;9.212;2023-01-08T03:46:43;7.00;42.50
24224;DHT22;12359;49.716;9.212;2023-01-08T03:49:11;7.00;42.00
24224;DHT22;12359;49.716;9.212;2023-01-08T03:51:41;6.90;45.40
24224;DHT22;12359;49.716;9.212;2023-01-08T03:54:12;7.00;45.30
24224;DHT22;12359;49.716;9.212;2023-01-08T03:56:38;6.90;45.30
24224;DHT22;12359;49.716;9.212;2023-01-08T03:59:03;6.80;44.10
24224;DHT22;12359;49.716;9.212;2023-01-08T04:01:29;6.80;45.20
24224;DHT22;12359;49.716;9.212;2023-01-08T04:03:55;6.70;47.10
24224;DHT22;12359;49.716;9.212;2023-01-08T04:06:20;6.80;49.70
24224;DHT22;12359;49.716;9.212;2023-01-08T04:08:47;6.80;50.90
24224;DHT22;12359;49.716;9.212;2023-01-08T04:11:13;6.80;52.80
24224;DHT22;12359;49.716;9.212;2023-01-08T04:13:38;6.80;52.70
24224;DHT22;12359;49.716;9.212;2023-01-08T04:16:04;6.90;53.40
24224;DHT22;12359;49.716;9.212;2023-01-08T04:18:30;6.90;52.70
24224;DHT22;12359;49.716;9.212;2023-01-08T04:20:56;7.00;54.30
24224;DHT22;12359;49.716;9.212;2023-01-08T04:23:21;7.00;55.70
24224;DHT22;12359;49.716;9.212;2023-01-08T04:25:47;7.00;55.70
24224;DHT22;12359;49.716;9.212;2023-01-08T04:28:13;7.00;55.50
24224;DHT22;12359;49.716;9.212;2023-01-08T04:30:38;7.00;56.80
24224;DHT22;12359;49.716;9.212;2023-01-08T04:33:04;7.10;59.00
24224;DHT22;12359;49.716;9.212;2023-01-08T04:35:30;7.00;59.30
24224;DHT22;12359;49.716;9.212;2023-01-08T04:37:56;7.10;59.20
24224;DHT22;12359;49.716;9.212;2023-01-08T04:40:21;7.10;60.50
24224;DHT22;12359;49.716;9.212;2023-01-08T04:42:47;7.00;61.00
24224;DHT22;12359;49.716;9.212;2023-01-08T04:45:12;7.10;64.60
24224;DHT22;12359;49.716;9.212;2023-01-08T04:47:38;7.10;65.60
24224;DHT22;12359;49.716;9.212;2023-01-08T04:50:04;7.10;67.00
24224;DHT22;12359;49.716;9.212;2023-01-08T04:52:30;7.10;68.40
24224;DHT22;12359;49.716;9.212;2023-01-08T04:54:56;7.20;68.50
24224;DHT22;12359;49.716;9.212;2023-01-08T04:57:21;7.20;69.50
24224;DHT22;12359;49.716;9.212;2023-01-08T04:59:47;7.20;71.20
24224;DHT22;12359;49.716;9.212;2023-01-08T05:02:12;7.20;71.10
24224;DHT22;12359;49.716;9.212;2023-01-08T05:04:38;7.20;69.40
24224;DHT22;12359;49.716;9.212;2023-01-08T05:07:04;7.20;68.20
24224;DHT22;12359;49.716;9.212;2023-01-08T05:09:30;7.20;68.40
24224;DHT22;12359;49.716;9.212;2023-01-08T05:11:55;7.30;67.00
24224;DHT22;12359;49.716;9.212;2023-01-08T05:14:21;7.30;66.60
24224;DHT22;12359;49.716;9.212;2023-01-08T05:16:47;7.30;67.10
24224;DHT22;12359;49.716;9.212;2023-01-08T05:19:12;7.30;67.60
24224;DHT22;12359;49.716;9.212;2023-01-08T05:21:38;7.30;67.20
24224;DHT22;12359;49.716;9.212;2023-01-08T05:24:04;7.20;67.20
24224;DHT22;12359;49.716;9.212;2023-01-08T05:26:30;7.20;66.40
24224;DHT22;12359;49.716;9.212;2023-01-08T05:28:57;7.20;65.60
24224;DHT22;12359;49.716;9.212;2023-01-08T05:31:22;7.20;66.40
24224;DHT22;12359;49.716;9.212;2023-01-08T05:33:48;7.20;69.00
24224;DHT22;12359;49.716;9.212;2023-01-08T05:36:14;7.10;64.40
24224;DHT22;12359;49.716;9.212;2023-01-08T05:38:40;7.20;68.90
24224;DHT22;12359;49.716;9.212;2023-01-08T05:41:06;7.10;68.60
24224;DHT22;12359;49.716;9.212;2023-01-08T05:43:31;7.20;66.10
24224;DHT22;12359;49.716;9.212;2023-01-08T05:45:58;7.30;66.40
24224;DHT22;12359;49.716;9.212;2023-01-08T05:48:25;7.40;65.70
24224;DHT22;12359;49.716;9.212;2023-01-08T05:50:50;7.40;62.50
24224;DHT22;12359;49.716;9.212;2023-01-08T05:53:16;7.40;63.20
24224;DHT22;12359;49.716;9.212;2023-01-08T05:55:42;7.40;66.70
24224;DHT22;12359;49.716;9.212;2023-01-08T05:58:08;7.30;67.40
24224;DHT22;12359;49.716;9.212;2023-01-08T06:00:35;7.30;67.30
24224;DHT22;12359;49.716;9.212;2023-01-08T06:03:01;7.30;68.80
24224;DHT22;12359;49.716;9.212;2023-01-08T06:05:27;7.30;71.40
24224;DHT22;12359;49.716;9.212;2023-01-08T06:07:53;7.30;71.40
24224;DHT22;12359;49.716;9.212;2023-01-08T06:10:18;7.40;72.70
24224;DHT22;12359;49.716;9.212;2023-01-08T06:12:44;7.30;74.50
24224;DHT22;12359;49.716;9.212;2023-01-08T06:15:10;7.30;74.20
24224;DHT22;12359;49.716;9.212;2023-01-08T06:17:37;7.40;76.00
24224;DHT22;12359;49.716;9.212;2023-01-08T06:20:03;7.40;78.00
24224;DHT22;12359;49.716;9.212;2023-01-08T06:22:28;7.40;77.90
24224;DHT22;12359;49.716;9.212;2023-01-08T06:24:54;7.50;77.60
24224;DHT22;12359;49.716;9.212;2023-01-08T06:27:20;7.40;74.40
24224;DHT22;12359;49.716;9.212;2023-01-08T06:29:46;7.40;72.10
24224;DHT22;12359;49.716;9.212;2023-01-08T06:32:11;7.30;73.00
24224;DHT22;12359;49.716;9.212;2023-01-08T06:34:37;7.20;75.30
24224;DHT22;12359;49.716;9.212;2023-01-08T06:37:02;7.20;79.50
24224;DHT22;12359;49.716;9.212;2023-01-08T06:39:28;7.20;80.70
24224;DHT22;12359;49.716;9.212;2023-01-08T06:41:54;7.20;84.00
24224;DHT22;12359;49.716;9.212;2023-01-08T06:44:19;7.30;87.00
24224;DHT22;12359;49.716;9.212;2023-01-08T06:46:45;7.30;86.70
24224;DHT22;12359;49.716;9.212;2023-01-08T06:49:11;7.30;87.70
24224;DHT22;12359;49.716;9.212;2023-01-08T06:51:38;7.40;88.60
24224;DHT22;12359;49.716;9.212;2023-01-08T06:54:03;7.30;89.30
24224;DHT22;12359;49.716;9.212;2023-01-08T06:56:29;7.30;90.30
24224;DHT22;12359;49.716;9.212;2023-01-08T06:58:55;7.30;89.70
24224;DHT22;12359;49.716;9.212;2023-01-08T07:01:21;7.20;87.80
24224;DHT22;12359;49.716;9.212;2023-01-08T07:03:47;7.20;88.60
24224;DHT22;12359;49.716;9.212;2023-01-08T07:06:18;7.20;90.20
24224;DHT22;12359;49.716;9.212;2023-01-08T07:08:45;7.20;91.00
24224;DHT22;12359;49.716;9.212;2023-01-08T07:11:11;7.30;91.70
24224;DHT22;12359;49.716;9.212;2023-01-08T07:13:38;7.30;92.00
24224;DHT22;12359;49.716;9.212;2023-01-08T07:16:05;7.40;91.80
24224;DHT22;12359;49.716;9.212;2023-01-08T07:18:31;7.50;91.90
24224;DHT22;12359;49.716;9.212;2023-01-08T07:20:57;7.60;90.60
24224;DHT22;12359;49.716;9.212;2023-01-08T07:23:22;7.60;91.00
24224;DHT22;12359;49.716;9.212;2023-01-08T07:25:48;7.70;88.90
24224;DHT22;12359;49.716;9.212;2023-01-08T07:28:13;7.70;88.50
24224;DHT22;12359;49.716;9.212;2023-01-08T07:30:39;7.80;89.50
24224;DHT22;12359;49.716;9.212;2023-01-08T07:33:05;7.90;88.20
24224;DHT22;12359;49.716;9.212;2023-01-08T07:35:31;8.00;88.60
24224;DHT22;12359;49.716;9.212;2023-01-08T07:37:56;8.00;87.30
24224;DHT22;12359;49.716;9.212;2023-01-08T07:40:23;8.10;85.00
24224;DHT22;12359;49.716;9.212;2023-01-08T07:42:56;8.10;84.30
24224;DHT22;12359;49.716;9.212;2023-01-08T07:45:22;8.20;83.30
24224;DHT22;12359;49.716;9.212;2023-01-08T07:47:48;8.30;82.30
24224;DHT22;12359;49.716;9.212;2023-01-08T07:50:13;8.40;81.30
24224;DHT22;12359;49.716;9.212;2023-01-08T07:52:39;8.30;78.10
24224;DHT22;12359;49.716;9.212;2023-01-08T07:55:05;8.40;80.30
24224;DHT22;12359;49.716;9.212;2023-01-08T07:57:30;8.40;77.80
24224;DHT22;12359;49.716;9.212;2023-01-08T07:59:56;8.40;78.70
24224;DHT22;12359;49.716;9.212;2023-01-08T08:02:22;8.40;79.40
24224;DHT22;12359;49.716;9.212;2023-01-08T08:04:47;8.40;79.30
24224;DHT22;12359;49.716;9.212;2023-01-08T08:07:13;8.40;83.00
24224;DHT22;12359;49.716;9.212;2023-01-08T08:09:39;8.50;81.40
24224;DHT22;12359;49.716;9.212;2023-01-08T08:12:04;8.60;80.10
24224;DHT22;12359;49.716;9.212;2023-01-08T08:14:30;8.70;78.60
24224;DHT22;12359;49.716;9.212;2023-01-08T08:16:56;8.70;78.70
24224;DHT22;12359;49.716;9.212;2023-01-08T08:19:21;8.80;73.00
24224;DHT22;12359;49.716;9.212;2023-01-08T08:21:47;8.80;73.50
24224;DHT22;12359;49.716;9.212;2023-01-08T08:24:13;8.80;71.80
24224;DHT22;12359;49.716;9.212;2023-01-08T08:26:38;8.90;72.40
24224;DHT22;12359;49.716;9.212;2023-01-08T08:29:04;8.90;72.00
24224;DHT22;12359;49.716;9.212;2023-01-08T08:31:29;8.90;72.10
24224;DHT22;12359;49.716;9.212;2023-01-08T08:33:55;8.90;74.00
24224;DHT22;12359;49.716;9.212;2023-01-08T08:36:27;8.80;73.00
24224;DHT22;12359;49.716;9.212;2023-01-08T08:38:53;8.80;75.50
24224;DHT22;12359;49.716;9.212;2023-01-08T08:41:18;8.90;75.60
24224;DHT22;12359;49.716;9.212;2023-01-08T08:43:44;8.90;75.30
24224;DHT22;12359;49.716;9.212;2023-01-08T08:46:10;8.90;76.30
24224;DHT22;12359;49.716;9.212;2023-01-08T08:48:35;8.90;74.40
24224;DHT22;12359;49.716;9.212;2023-01-08T08:51:01;8.90;73.50
24224;DHT22;12359;49.716;9.212;2023-01-08T08:53:28;8.90;74.10
24224;DHT22;12359;49.716;9.212;2023-01-08T08:55:53;8.90;72.20
24224;DHT22;12359;49.716;9.212;2023-01-08T08:58:19;8.90;76.30
24224;DHT22;12359;49.716;9.212;2023-01-08T09:00:45;8.90;76.60
24224;DHT22;12359;49.716;9.212;2023-01-08T09:03:14;8.90;74.40
24224;DHT22;12359;49.716;9.212;2023-01-08T09:05:40;8.90;74.20
24224;DHT22;12359;49.716;9.212;2023-01-08T09:08:07;8.90;76.60
24224;DHT22;12359;49.716;9.212;2023-01-08T09:10:35;8.90;78.00
24224;DHT22;12359;49.716;9.212;2023-01-08T09:13:00;8.80;77.90
24224;DHT22;12359;49.716;9.212;2023-01-08T09:15:26;8.90;79.20
24224;DHT22;12359;49.716;9.212;2023-01-08T09:17:55;8.90;84.70
24224;DHT22;12359;49.716;9.212;2023-01-08T09:20:23;8.90;79.50
24224;DHT22;12359;49.716;9.212;2023-01-08T09:22:49;8.90;80.30
24224;DHT22;12359;49.716;9.212;2023-01-08T09:25:15;8.80;83.00
24224;DHT22;12359;49.716;9.212;2023-01-08T09:27:40;8.90;81.60
24224;DHT22;12359;49.716;9.212;2023-01-08T09:30:07;8.90;83.20
24224;DHT22;12359;49.716;9.212;2023-01-08T09:32:32;8.80;83.60
24224;DHT22;12359;49.716;9.212;2023-01-08T09:34:58;8.80;85.00
24224;DHT22;12359;49.716;9.212;2023-01-08T09:37:24;8.80;84.30
24224;DHT22;12359;49.716;9.212;2023-01-08T09:39:49;8.80;85.70
24224;DHT22;12359;49.716;9.212;2023-01-08T09:42:19;8.80;85.40
24224;DHT22;12359;49.716;9.212;2023-01-08T09:44:47;8.80;86.20
24224;DHT22;12359;49.716;9.212;2023-01-08T09:47:35;8.80;87.90
24224;DHT22;12359;49.716;9.212;2023-01-08T09:50:06;8.80;88.70
24224;DHT22;12359;49.716;9.212;2023-01-08T09:52:36;8.80;88.50
24224;DHT22;12359;49.716;9.212;2023-01-08T09:55:02;8.80;88.10
24224;DHT22;12359;49.716;9.212;2023-01-08T09:57:28;8.90;90.10
24224;DHT22;12359;49.716;9.212;2023-01-08T09:59:54;8.90;89.30
24224;DHT22;12359;49.716;9.212;2023-01-08T10:02:22;9.00;88.20
24224;DHT22;12359;49.716;9.212;2023-01-08T10:04:57;9.00;86.50
24224;DHT22;12359;49.716;9.212;2023-01-08T10:07:26;9.00;85.40
24224;DHT22;12359;49.716;9.212;2023-01-08T10:09:54;9.10;79.30
24224;DHT22;12359;49.716;9.212;2023-01-08T10:12:32;9.20;80.50
24224;DHT22;12359;49.716;9.212;2023-01-08T10:15:07;9.30;77.40
24224;DHT22;12359;49.716;9.212;2023-01-08T10:18:19;9.30;72.50
24224;DHT22;12359;49.716;9.212;2023-01-08T10:20:26;9.40;70.00
24224;DHT22;12359;49.716;9.212;2023-01-08T10:22:53;9.50;67.00
24224;DHT22;12359;49.716;9.212;2023-01-08T10:25:21;9.50;67.20
24224;DHT22;12359;49.716;9.212;2023-01-08T10:27:56;9.50;62.60
24224;DHT22;12359;49.716;9.212;2023-01-08T10:33:02;9.50;60.10
24224;DHT22;12359;49.716;9.212;2023-01-08T10:35:33;9.60;59.70
24224;DHT22;12359;49.716;9.212;2023-01-08T10:38:00;9.60;58.70
24224;DHT22;12359;49.716;9.212;2023-01-08T10:40:46;9.60;57.80
24224;DHT22;12359;49.716;9.212;2023-01-08T10:43:16;9.60;51.60
24224;DHT22;12359;49.716;9.212;2023-01-08T10:45:43;9.70;54.50
24224;DHT22;12359;49.716;9.212;2023-01-08T10:48:19;9.70;54.80
24224;DHT22;12359;49.716;9.212;2023-01-08T10:50:45;9.70;53.70
24224;DHT22;12359;49.716;9.212;2023-01-08T10:53:27;9.70;53.60
24224;DHT22;12359;49.716;9.212;2023-01-08T10:55:58;9.70;54.80
24224;DHT22;12359;49.716;9.212;2023-01-08T10:58:24;10.00;59.20
24224;DHT22;12359;49.716;9.212;2023-01-08T11:00:49;10.10;35.70
24224;DHT22;12359;49.716;9.212;2023-01-08T11:03:27;10.10;36.90
24224;DHT22;12359;49.716;9.212;2023-01-08T11:05:53;10.30;33.50
24224;DHT22;12359;49.716;9.212;2023-01-08T11:08:20;10.30;17.60
24224;DHT22;12359;49.716;9.212;2023-01-08T11:10:57;10.20;25.50
24224;DHT22;12359;49.716;9.212;2023-01-08T11:13:25;10.20;31.70
24224;DHT22;12359;49.716;9.212;2023-01-08T11:16:06;10.10;34.80
24224;DHT22;12359;49.716;9.212;2023-01-08T11:18:44;10.20;16.70
24224;DHT22;12359;49.716;9.212;2023-01-08T11:21:19;10.10;16.90
24224;DHT22;12359;49.716;9.212;2023-01-08T11:23:47;10.20;7.10
24224;DHT22;12359;49.716;9.212;2023-01-08T11:26:25;10.20;15.20
24224;DHT22;12359;49.716;9.212;2023-01-08T11:34:33;10.50;5.70
24224;DHT22;12359;49.716;9.212;2023-01-08T11:37:08;10.70;1.00
24224;DHT22;12359;49.716;9.212;2023-01-08T11:39:36;10.90;1.00
24224;DHT22;12359;49.716;9.212;2023-01-08T11:42:14;11.00;1.00
24224;DHT22;12359;49.716;9.212;2023-01-08T11:44:57;11.10;1.00
24224;DHT22;12359;49.716;9.212;2023-01-08T11:48:08;11.10;1.00
24224;DHT22;12359;49.716;9.212;2023-01-08T11:50:29;11.10;1.00
24224;DHT22;12359;49.716;9.212;2023-01-08T11:55:57;11.20;1.00
24224;DHT22;12359;49.716;9.212;2023-01-08T12:01:24;11.60;99.90
24224;DHT22;12359;49.716;9.212;2023-01-08T12:09:45;12.10;99.90
24224;DHT22;12359;49.716;9.212;2023-01-08T12:15:08;12.00;99.90
24224;DHT22;12359;49.716;9.212;2023-01-08T12:31:39;11.70;99.90
24224;DHT22;12359;49.716;9.212;2023-01-08T12:34:14;11.70;99.90
24224;DHT22;12359;49.716;9.212;2023-01-08T12:36:46;11.60;99.90
24224;DHT22;12359;49.716;9.212;2023-01-08T12:41:47;11.40;99.90
24224;DHT22;12359;49.716;9.212;2023-01-08T12:44:21;11.30;1.00
24224;DHT22;12359;49.716;9.212;2023-01-08T12:46:49;11.30;1.00
24224;DHT22;12359;49.716;9.212;2023-01-08T12:49:23;11.30;99.90
24224;DHT22;12359;49.716;9.212;2023-01-08T12:52:02;11.30;99.90
24224;DHT22;12359;49.716;9.212;2023-01-08T12:55:25;11.30;99.90
24224;DHT22;12359;49.716;9.212;2023-01-08T12:57:59;11.30;1.00
24224;DHT22;12359;49.716;9.212;2023-01-08T13:03:28;11.20;99.90
24224;DHT22;12359;49.716;9.212;2023-01-08T13:06:05;11.20;99.90
24224;DHT22;12359;49.716;9.212;2023-01-08T13:08:36;11.30;99.90
24224;DHT22;12359;49.716;9.212;2023-01-08T13:11:03;11.30;99.90
24224;DHT22;12359;49.716;9.212;2023-01-08T13:13:30;11.30;99.90
24224;DHT22;12359;49.716;9.212;2023-01-08T13:18:51;11.30;99.90
24224;DHT22;12359;49.716;9.212;2023-01-08T13:21:17;11.30;99.90
24224;DHT22;12359;49.716;9.212;2023-01-08T13:23:59;11.30;99.90
24224;DHT22;12359;49.716;9.212;2023-01-08T13:26:30;11.30;99.90
24224;DHT22;12359;49.716;9.212;2023-01-08T13:29:25;11.30;99.90
24224;DHT22;12359;49.716;9.212;2023-01-08T13:31:51;11.40;99.90
24224;DHT22;12359;49.716;9.212;2023-01-08T13:34:19;11.40;99.90
24224;DHT22;12359;49.716;9.212;2023-01-08T13:36:58;11.40;99.90
24224;DHT22;12359;49.716;9.212;2023-01-08T13:39:32;11.40;99.90
24224;DHT22;12359;49.716;9.212;2023-01-08T13:42:03;11.40;99.90
24224;DHT22;12359;49.716;9.212;2023-01-08T13:44:45;11.40;99.90
24224;DHT22;12359;49.716;9.212;2023-01-08T13:47:33;11.40;99.90
24224;DHT22;12359;49.716;9.212;2023-01-08T13:50:17;11.40;99.90
24224;DHT22;12359;49.716;9.212;2023-01-08T13:52:55;11.30;99.90
24224;DHT22;12359;49.716;9.212;2023-01-08T13:55:36;11.30;99.90
24224;DHT22;12359;49.716;9.212;2023-01-08T13:58:12;11.20;99.90
24224;DHT22;12359;49.716;9.212;2023-01-08T14:03:22;11.20;99.90
24224;DHT22;12359;49.716;9.212;2023-01-08T14:05:48;11.30;99.90
24224;DHT22;12359;49.716;9.212;2023-01-08T14:08:25;11.20;99.90
24224;DHT22;12359;49.716;9.212;2023-01-08T14:10:54;11.10;99.90
24224;DHT22;12359;49.716;9.212;2023-01-08T14:13:28;11.10;99.90
24224;DHT22;12359;49.716;9.212;2023-01-08T14:16:00;11.10;99.90
24224;DHT22;12359;49.716;9.212;2023-01-08T14:18:27;11.10;99.90
24224;DHT22;12359;49.716;9.212;2023-01-08T14:20:53;11.10;99.90
24224;DHT22;12359;49.716;9.212;2023-01-08T14:23:33;11.10;99.90
24224;DHT22;12359;49.716;9.212;2023-01-08T14:26:03;11.10;99.90
24224;DHT22;12359;49.716;9.212;2023-01-08T14:28:35;11.10;1.00
24224;DHT22;12359;49.716;9.212;2023-01-08T14:31:01;11.10;99.90
24224;DHT22;12359;49.716;9.212;2023-01-08T14:33:34;11.10;1.00
24224;DHT22;12359;49.716;9.212;2023-01-08T14:36:01;11.00;1.00
24224;DHT22;12359;49.716;9.212;2023-01-08T14:38:29;11.00;1.00
24224;DHT22;12359;49.716;9.212;2023-01-08T14:41:13;11.00;1.00
24224;DHT22;12359;49.716;9.212;2023-01-08T14:43:42;11.00;1.00
24224;DHT22;12359;49.716;9.212;2023-01-08T14:48:43;10.90;1.00
24224;DHT22;12359;49.716;9.212;2023-01-08T14:51:12;10.90;1.00
24224;DHT22;12359;49.716;9.212;2023-01-08T14:53:49;10.90;1.00
24224;DHT22;12359;49.716;9.212;2023-01-08T14:56:19;10.90;1.00
24224;DHT22;12359;49.716;9.212;2023-01-08T14:58:47;10.80;1.00
24224;DHT22;12359;49.716;9.212;2023-01-08T15:01:22;10.80;1.00
24224;DHT22;12359;49.716;9.212;2023-01-08T15:03:49;10.80;1.00
24224;DHT22;12359;49.716;9.212;2023-01-08T15:06:30;10.70;1.00
24224;DHT22;12359;49.716;9.212;2023-01-08T15:08:57;10.70;1.00
24224;DHT22;12359;49.716;9.212;2023-01-08T15:11:31;10.70;1.00
24224;DHT22;12359;49.716;9.212;2023-01-08T15:14:13;10.70;1.00
24224;DHT22;12359;49.716;9.212;2023-01-08T15:16:40;10.60;1.00
24224;DHT22;12359;49.716;9.212;2023-01-08T15:21:44;10.60;1.00
24224;DHT22;12359;49.716;9.212;2023-01-08T15:26:45;10.50;1.00
24224;DHT22;12359;49.716;9.212;2023-01-08T15:29:18;10.60;1.00
24224;DHT22;12359;49.716;9.212;2023-01-08T15:31:47;10.60;1.00
24224;DHT22;12359;49.716;9.212;2023-01-08T15:34:17;10.50;1.00
24224;DHT22;12359;49.716;9.212;2023-01-08T15:36:44;10.60;1.00
24224;DHT22;12359;49.716;9.212;2023-01-08T15:39:09;10.60;1.00
24224;DHT22;12359;49.716;9.212;2023-01-08T15:41:37;10.60;1.00
24224;DHT22;12359;49.716;9.212;2023-01-08T15:44:23;10.60;1.00
24224;DHT22;12359;49.716;9.212;2023-01-08T15:46:50;10.60;1.00
24224;DHT22;12359;49.716;9.212;2023-01-08T15:49:15;10.60;1.00
24224;DHT22;12359;49.716;9.212;2023-01-08T15:51:45;10.60;1.00
24224;DHT22;12359;49.716;9.212;2023-01-08T15:54:12;10.50;1.00
24224;DHT22;12359;49.716;9.212;2023-01-08T15:56:38;10.50;1.00
24224;DHT22;12359;49.716;9.212;2023-01-08T15:59:04;10.40;1.00
24224;DHT22;12359;49.716;9.212;2023-01-08T16:01:31;10.40;1.00
24224;DHT22;12359;49.716;9.212;2023-01-08T16:03:57;10.40;1.00
24224;DHT22;12359;49.716;9.212;2023-01-08T16:06:23;10.40;1.00
24224;DHT22;12359;49.716;9.212;2023-01-08T16:08:49;10.40;1.00
24224;DHT22;12359;49.716;9.212;2023-01-08T16:11:18;10.40;1.00
24224;DHT22;12359;49.716;9.212;2023-01-08T16:13:44;10.40;1.00
24224;DHT22;12359;49.716;9.212;2023-01-08T16:16:12;10.40;1.00
24224;DHT22;12359;49.716;9.212;2023-01-08T16:18:38;10.40;1.00
24224;DHT22;12359;49.716;9.212;2023-01-08T16:21:05;10.40;1.00
24224;DHT22;12359;49.716;9.212;2023-01-08T16:23:38;10.40;1.00
24224;DHT22;12359;49.716;9.212;2023-01-08T16:26:09;10.30;1.00
24224;DHT22;12359;49.716;9.212;2023-01-08T16:28:35;10.30;1.00
24224;DHT22;12359;49.716;9.212;2023-01-08T16:31:01;10.30;1.00
24224;DHT22;12359;49.716;9.212;2023-01-08T16:33:27;10.40;1.00
24224;DHT22;12359;49.716;9.212;2023-01-08T16:36:01;10.40;1.00
24224;DHT22;12359;49.716;9.212;2023-01-08T16:38:28;10.30;1.00
24224;DHT22;12359;49.716;9.212;2023-01-08T16:40:55;10.20;1.00
24224;DHT22;12359;49.716;9.212;2023-01-08T16:43:22;10.30;1.00
24224;DHT22;12359;49.716;9.212;2023-01-08T16:45:48;10.30;1.00
24224;DHT22;12359;49.716;9.212;2023-01-08T16:48:14;10.30;1.00
24224;DHT22;12359;49.716;9.212;2023-01-08T16:50:41;10.30;1.00
24224;DHT22;12359;49.716;9.212;2023-01-08T16:53:07;10.30;1.00
24224;DHT22;12359;49.716;9.212;2023-01-08T16:55:35;10.30;1.00
24224;DHT22;12359;49.716;9.212;2023-01-08T16:58:01;10.30;1.00
24224;DHT22;12359;49.716;9.212;2023-01-08T17:00:29;10.30;1.00
24224;DHT22;12359;49.716;9.212;2023-01-08T17:02:55;10.30;1.00
24224;DHT22;12359;49.716;9.212;2023-01-08T17:05:21;10.30;1.00
24224;DHT22;12359;49.716;9.212;2023-01-08T17:07:50;10.30;1.00
24224;DHT22;12359;49.716;9.212;2023-01-08T17:10:16;10.30;1.00